createdAt,value
2023-08-04T00:00:24.717Z,79.17
2023-08-04T00:02:51.434Z,79.13
2023-08-04T00:05:18.132Z,79.13
2023-08-04T00:07:44.792Z,79.08
2023-08-04T00:10:11.936Z,79.13
2023-08-04T00:12:39.076Z,79.15
2023-08-04T00:15:08.944Z,79.13
2023-08-04T00:17:38.809Z,79.15
2023-08-04T00:20:11.846Z,79.11
2023-08-04T00:22:41.421Z,78.98
2023-08-04T00:25:08.528Z,79.15
2023-08-04T00:27:35.282Z,79.34
2023-08-04T00:30:02.309Z,79.41
2023-08-04T00:32:29.348Z,79.34
2023-08-04T00:34:56.011Z,79.41
2023-08-04T00:37:23.189Z,79.38
2023-08-04T00:39:49.722Z,79.30
2023-08-04T00:42:16.188Z,79.42
2023-08-04T00:44:43.083Z,79.29
2023-08-04T00:47:10.189Z,79.39
2023-08-04T00:49:37.011Z,79.32
2023-08-04T00:52:04.214Z,79.32
2023-08-04T00:54:30.806Z,79.28
2023-08-04T00:56:58.635Z,79.16
2023-08-04T00:59:25.274Z,79.23
2023-08-04T01:05:04.891Z,78.96
2023-08-04T01:08:00.381Z,79.01
2023-08-04T01:10:50.611Z,79.03
2023-08-04T01:13:22.881Z,79.32
2023-08-04T01:15:51.972Z,79.59
2023-08-04T01:18:22.341Z,79.59
2023-08-04T01:20:49.810Z,79.56
2023-08-04T01:23:16.449Z,79.45
2023-08-04T01:25:43.884Z,79.44
2023-08-04T01:28:17.644Z,79.45
2023-08-04T01:30:47.096Z,79.45
2023-08-04T01:33:14.712Z,79.46
2023-08-04T01:35:43.126Z,79.38
2023-08-04T01:38:10.582Z,79.33
2023-08-04T01:40:37.251Z,79.28
2023-08-04T01:43:05.409Z,79.28
2023-08-04T01:45:32.670Z,79.35
2023-08-04T01:47:59.268Z,79.35
2023-08-04T01:50:25.745Z,79.28
2023-08-04T01:52:55.312Z,79.01
2023-08-04T01:56:19.345Z,79.05
2023-08-04T01:58:47.504Z,79.33
2023-08-04T02:01:13.757Z,79.25
2023-08-04T02:03:40.108Z,79.09
2023-08-04T02:06:09.757Z,79.27
2023-08-04T02:08:36.101Z,79.40
2023-08-04T02:11:02.614Z,79.48
2023-08-04T02:13:29.027Z,79.54
2023-08-04T02:15:55.754Z,79.50
2023-08-04T02:18:22.144Z,79.52
2023-08-04T02:20:48.655Z,79.65
2023-08-04T02:23:15.079Z,79.69
2023-08-04T02:25:41.435Z,79.91
2023-08-04T02:28:08.670Z,79.94
2023-08-04T02:30:35.019Z,79.92
2023-08-04T02:33:01.507Z,80.00
2023-08-04T02:35:28.041Z,79.71
2023-08-04T02:37:54.253Z,79.75
2023-08-04T02:40:20.635Z,79.72
2023-08-04T02:42:47.145Z,79.79
2023-08-04T02:45:13.777Z,79.81
2023-08-04T02:47:41.036Z,79.88
2023-08-04T02:50:09.167Z,79.92
2023-08-04T02:52:35.769Z,79.94
2023-08-04T02:55:02.267Z,79.81
2023-08-04T02:57:31.932Z,79.94
2023-08-04T02:59:58.953Z,80.04
2023-08-04T03:02:26.823Z,79.98
2023-08-04T03:04:53.491Z,79.94
2023-08-04T03:07:20.054Z,80.02
2023-08-04T03:09:46.324Z,79.95
2023-08-04T03:12:15.107Z,79.98
2023-08-04T03:14:41.590Z,79.99
2023-08-04T03:17:08.104Z,79.91
2023-08-04T03:19:34.628Z,79.78
2023-08-04T03:22:01.167Z,79.77
2023-08-04T03:24:27.746Z,79.92
2023-08-04T03:26:54.434Z,79.89
2023-08-04T03:29:20.867Z,79.83
2023-08-04T03:31:49.955Z,79.80
2023-08-04T03:34:16.720Z,79.74
2023-08-04T03:36:43.496Z,79.85
2023-08-04T03:39:09.922Z,79.96
2023-08-04T03:41:36.445Z,79.94
2023-08-04T03:44:02.871Z,80.01
2023-08-04T03:46:29.395Z,80.04
2023-08-04T03:48:55.921Z,80.00
2023-08-04T03:51:23.525Z,79.89
2023-08-04T03:53:50.187Z,79.94
2023-08-04T03:56:16.866Z,79.92
2023-08-04T03:58:43.323Z,79.94
2023-08-04T04:01:09.645Z,80.03
2023-08-04T04:03:36.728Z,80.13
2023-08-04T04:06:03.009Z,80.04
2023-08-04T04:08:29.834Z,80.04
2023-08-04T04:10:56.372Z,80.14
2023-08-04T04:13:30.396Z,80.16
2023-08-04T04:15:56.686Z,80.26
2023-08-04T04:18:23.245Z,80.35
2023-08-04T04:20:49.468Z,80.35
2023-08-04T04:23:16.021Z,80.43
2023-08-04T04:25:42.639Z,80.56
2023-08-04T04:28:09.003Z,80.51
2023-08-04T04:30:35.732Z,80.70
2023-08-04T04:33:02.163Z,80.83
2023-08-04T04:35:28.764Z,80.97
2023-08-04T04:37:55.258Z,80.89
2023-08-04T04:40:22.228Z,81.01
2023-08-04T04:42:48.596Z,81.05
2023-08-04T04:45:15.235Z,81.06
2023-08-04T04:47:41.953Z,81.13
2023-08-04T04:50:09.124Z,81.05
2023-08-04T04:52:37.601Z,80.84
2023-08-04T04:55:05.549Z,81.00
2023-08-04T04:57:32.120Z,80.90
2023-08-04T05:00:01.398Z,80.92
2023-08-04T05:02:27.834Z,80.98
2023-08-04T05:04:54.262Z,80.99
2023-08-04T05:07:20.843Z,80.93
2023-08-04T05:09:47.797Z,80.73
2023-08-04T05:12:14.139Z,80.70
2023-08-04T05:14:41.557Z,80.85
2023-08-04T05:17:08.559Z,80.91
2023-08-04T05:19:35.098Z,80.96
2023-08-04T05:22:01.694Z,80.91
2023-08-04T05:24:28.445Z,80.90
2023-08-04T05:26:54.712Z,80.93
2023-08-04T05:29:20.986Z,81.03
2023-08-04T05:31:47.787Z,81.13
2023-08-04T05:34:14.393Z,81.21
2023-08-04T05:36:40.730Z,81.36
2023-08-04T05:39:07.354Z,81.32
2023-08-04T05:41:34.521Z,81.34
2023-08-04T05:44:00.992Z,81.21
2023-08-04T05:46:27.721Z,81.24
2023-08-04T05:48:54.431Z,81.39
2023-08-04T05:51:20.929Z,81.40
2023-08-04T05:53:53.050Z,81.40
2023-08-04T05:56:19.661Z,81.67
2023-08-04T05:58:46.204Z,81.48
2023-08-04T06:01:12.861Z,81.46
2023-08-04T06:03:41.208Z,81.48
2023-08-04T06:06:07.613Z,81.45
2023-08-04T06:08:33.974Z,81.38
2023-08-04T06:11:00.753Z,81.23
2023-08-04T06:13:29.479Z,81.08
2023-08-04T06:15:56.559Z,81.09
2023-08-04T06:18:22.859Z,80.95
2023-08-04T06:20:51.486Z,81.04
2023-08-04T06:23:17.963Z,80.99
2023-08-04T06:25:44.304Z,81.04
2023-08-04T06:28:13.566Z,80.83
2023-08-04T06:30:40.298Z,80.76
2023-08-04T06:33:06.656Z,80.54
2023-08-04T06:35:33.117Z,80.72
2023-08-04T06:37:59.740Z,80.69
2023-08-04T06:40:29.291Z,80.68
2023-08-04T06:42:55.738Z,80.58
2023-08-04T06:45:22.058Z,80.51
2023-08-04T06:47:48.478Z,80.30
2023-08-04T06:50:15.071Z,80.53
2023-08-04T06:52:42.114Z,80.69
2023-08-04T06:55:08.958Z,80.42
2023-08-04T06:57:35.310Z,80.33
2023-08-04T07:00:01.818Z,80.42
2023-08-04T07:02:28.413Z,79.89
2023-08-04T07:04:55.029Z,79.62
2023-08-04T07:07:21.688Z,79.91
2023-08-04T07:09:48.387Z,80.06
2023-08-04T07:12:15.240Z,80.23
2023-08-04T07:14:42.319Z,80.11
2023-08-04T07:17:09.005Z,80.23
2023-08-04T07:19:35.305Z,80.02
2023-08-04T07:22:01.862Z,80.16
2023-08-04T07:24:30.547Z,80.13
2023-08-04T07:26:59.002Z,79.71
2023-08-04T07:29:25.493Z,79.79
2023-08-04T07:31:52.021Z,79.26
2023-08-04T07:34:18.143Z,79.53
2023-08-04T07:36:44.686Z,79.40
2023-08-04T07:39:11.954Z,78.86
2023-08-04T07:41:38.974Z,78.52
2023-08-04T07:44:05.882Z,77.87
2023-08-04T07:46:32.817Z,77.77
2023-08-04T07:48:59.911Z,77.59
2023-08-04T07:51:26.458Z,77.56
2023-08-04T07:53:52.914Z,76.74
2023-08-04T07:56:19.564Z,76.49
2023-08-04T07:58:48.065Z,75.87
2023-08-04T08:01:14.866Z,75.86
2023-08-04T08:03:41.675Z,75.83
2023-08-04T08:06:08.811Z,75.80
2023-08-04T08:08:35.198Z,75.64
2023-08-04T08:11:04.576Z,75.41
2023-08-04T08:13:31.628Z,75.09
2023-08-04T08:15:58.320Z,74.71
2023-08-04T08:18:24.856Z,74.62
2023-08-04T08:20:51.963Z,74.43
2023-08-04T08:23:18.444Z,74.22
2023-08-04T08:25:44.799Z,74.11
2023-08-04T08:28:11.554Z,74.13
2023-08-04T08:30:38.738Z,73.97
2023-08-04T08:33:05.081Z,74.06
2023-08-04T08:35:31.720Z,73.37
2023-08-04T08:37:58.952Z,73.45
2023-08-04T08:40:27.639Z,73.47
2023-08-04T08:43:14.361Z,72.85
2023-08-04T08:45:42.440Z,72.39
2023-08-04T08:48:10.035Z,71.80
2023-08-04T08:50:38.437Z,71.47
2023-08-04T08:53:14.051Z,71.32
2023-08-04T08:55:45.423Z,71.56
2023-08-04T08:58:12.792Z,71.93
2023-08-04T09:00:40.997Z,71.62
2023-08-04T09:03:07.526Z,71.49
2023-08-04T09:05:34.441Z,71.05
2023-08-04T09:08:01.543Z,71.21
2023-08-04T09:10:28.028Z,71.26
2023-08-04T09:12:56.932Z,70.88
2023-08-04T09:15:46.950Z,70.72
2023-08-04T09:18:37.823Z,70.84
2023-08-04T09:21:14.609Z,70.54
2023-08-04T09:23:50.373Z,70.42
2023-08-04T09:26:17.180Z,70.23
2023-08-04T09:28:43.688Z,69.99
2023-08-04T09:31:13.491Z,70.11
2023-08-04T09:33:44.400Z,69.62
2023-08-04T09:36:20.891Z,69.31
2023-08-04T09:38:47.875Z,69.20
2023-08-04T09:41:16.436Z,68.30
2023-08-04T09:43:44.669Z,68.87
2023-08-04T09:46:12.653Z,68.86
2023-08-04T09:48:39.856Z,68.34
2023-08-04T09:51:17.370Z,68.38
2023-08-04T09:53:51.228Z,68.39
2023-08-04T09:56:19.765Z,68.79
2023-08-04T09:58:48.508Z,68.51
2023-08-04T10:01:17.106Z,68.07
2023-08-04T10:03:46.902Z,67.96
2023-08-04T10:06:17.242Z,67.59
2023-08-04T10:08:43.793Z,67.35
2023-08-04T10:11:10.855Z,67.58
2023-08-04T10:13:46.244Z,67.27
2023-08-04T10:16:18.458Z,66.13
2023-08-04T10:18:51.010Z,65.86
2023-08-04T10:21:27.453Z,65.73
2023-08-04T10:23:54.938Z,66.37
2023-08-04T10:26:21.524Z,65.84
2023-08-04T10:29:05.935Z,65.77
2023-08-04T10:31:57.929Z,63.89
2023-08-04T10:34:32.757Z,63.67
2023-08-04T10:37:15.418Z,64.17
2023-08-04T10:39:44.766Z,64.05
2023-08-04T10:42:24.887Z,64.09
2023-08-04T10:45:11.732Z,63.27
2023-08-04T10:47:59.017Z,61.17
2023-08-04T10:50:29.665Z,60.77
2023-08-04T10:52:57.483Z,59.68
2023-08-04T10:55:24.045Z,60.01
2023-08-04T10:57:50.448Z,59.53
2023-08-04T11:00:17.128Z,59.54
2023-08-04T11:02:50.211Z,60.57
2023-08-04T11:05:17.230Z,60.40
2023-08-04T11:08:09.139Z,59.02
2023-08-04T11:10:45.217Z,57.81
2023-08-04T11:13:32.110Z,57.51
2023-08-04T11:16:09.917Z,56.65
2023-08-04T11:22:43.349Z,53.94
2023-08-04T11:25:09.986Z,53.65
2023-08-04T11:27:39.983Z,53.75
2023-08-04T11:30:10.929Z,53.87
2023-08-04T11:32:38.178Z,53.60
2023-08-04T11:35:05.525Z,53.11
2023-08-04T11:37:33.572Z,53.89
2023-08-04T11:40:00.194Z,54.56
2023-08-04T11:42:26.522Z,55.16
2023-08-04T11:44:53.160Z,55.18
2023-08-04T11:47:21.369Z,54.96
2023-08-04T11:50:35.016Z,55.04
2023-08-04T11:53:02.194Z,54.92
2023-08-04T11:55:28.735Z,55.07
2023-08-04T11:57:55.985Z,55.17
2023-08-04T12:00:38.456Z,54.96
2023-08-04T12:03:06.155Z,55.06
2023-08-04T12:05:37.600Z,55.58
2023-08-04T12:08:13.948Z,55.76
2023-08-04T12:10:40.924Z,55.99
2023-08-04T12:13:07.798Z,56.19
2023-08-04T12:15:53.366Z,56.56
2023-08-04T12:18:27.822Z,56.38
2023-08-04T12:20:55.243Z,56.19
2023-08-04T12:23:22.521Z,56.23
2023-08-04T12:25:49.047Z,56.74
2023-08-04T12:28:16.508Z,56.72
2023-08-04T12:30:49.781Z,56.35
2023-08-04T12:33:21.149Z,56.88
2023-08-04T12:35:47.812Z,57.65
2023-08-04T12:38:14.284Z,57.70
2023-08-04T12:40:41.070Z,58.03
2023-08-04T12:43:07.552Z,58.34
2023-08-04T12:45:34.017Z,57.28
2023-08-04T12:48:00.690Z,57.69
2023-08-04T12:50:27.711Z,58.38
2023-08-04T12:52:57.149Z,58.61
2023-08-04T12:55:23.750Z,58.08
2023-08-04T12:57:50.052Z,57.47
2023-08-04T13:00:16.911Z,57.34
2023-08-04T13:02:43.707Z,56.67
2023-08-04T13:05:10.308Z,56.92
2023-08-04T13:07:36.851Z,56.93
2023-08-04T13:10:03.925Z,57.59
2023-08-04T13:12:30.236Z,58.20
2023-08-04T13:14:56.758Z,59.09
2023-08-04T13:17:23.442Z,58.24
2023-08-04T13:19:50.054Z,58.19
2023-08-04T13:22:16.589Z,58.25
2023-08-04T13:24:44.137Z,57.83
2023-08-04T13:27:10.819Z,57.34
2023-08-04T13:29:38.406Z,57.65
2023-08-04T13:32:07.350Z,57.58
2023-08-04T13:34:34.308Z,57.10
2023-08-04T13:37:00.664Z,57.42
2023-08-04T13:39:27.325Z,57.59
2023-08-04T13:41:53.802Z,57.50
2023-08-04T13:44:20.275Z,57.85
2023-08-04T13:46:47.198Z,58.28
2023-08-04T13:49:14.324Z,58.15
2023-08-04T13:51:40.993Z,57.59
2023-08-04T13:54:07.966Z,58.36
2023-08-04T13:56:34.803Z,58.17
2023-08-04T13:59:01.461Z,58.23
2023-08-04T14:01:29.518Z,58.11
2023-08-04T14:03:56.306Z,57.13
2023-08-04T14:06:22.785Z,57.12
2023-08-04T14:08:49.389Z,57.25
2023-08-04T14:11:16.292Z,57.14
2023-08-04T14:13:42.839Z,56.35
2023-08-04T14:16:13.907Z,56.91
2023-08-04T14:18:41.237Z,57.21
2023-08-04T14:21:08.930Z,57.10
2023-08-04T14:23:35.640Z,57.07
2023-08-04T14:26:03.730Z,56.54
2023-08-04T14:28:30.703Z,57.35
2023-08-04T14:30:57.732Z,57.19
2023-08-04T14:33:24.060Z,57.82
2023-08-04T14:35:50.690Z,58.18
2023-08-04T14:38:17.489Z,58.21
2023-08-04T14:40:44.409Z,58.39
2023-08-04T14:43:10.996Z,58.20
2023-08-04T14:45:38.128Z,58.50
2023-08-04T14:49:09.344Z,58.82
2023-08-04T14:52:55.618Z,58.61
2023-08-04T14:56:41.736Z,59.36
2023-08-04T15:00:28.099Z,59.75
2023-08-04T15:04:14.641Z,59.21
2023-08-04T15:08:00.766Z,59.72
2023-08-04T15:11:18.517Z,59.98
2023-08-04T15:15:05.150Z,60.15
2023-08-04T15:18:51.410Z,60.93
2023-08-04T15:22:38.183Z,61.38
2023-08-04T15:26:34.132Z,61.48
2023-08-04T15:30:22.466Z,61.78
2023-08-04T15:34:14.263Z,61.52
2023-08-04T15:38:05.996Z,60.57
2023-08-04T15:45:50.914Z,60.70
2023-08-04T15:53:47.745Z,61.05
2023-08-04T15:57:17.647Z,61.38
2023-08-04T16:01:04.415Z,61.63
2023-08-04T16:04:50.611Z,61.82
2023-08-04T16:08:37.768Z,62.23
2023-08-04T16:12:26.459Z,62.42
2023-08-04T16:16:13.233Z,62.91
2023-08-04T16:19:59.664Z,63.48
2023-08-04T16:23:25.847Z,63.66
2023-08-04T16:27:12.601Z,64.03
2023-08-04T16:30:58.917Z,63.72
2023-08-04T16:34:01.153Z,64.44
2023-08-04T16:36:28.473Z,65.10
2023-08-04T16:39:00.125Z,65.32
2023-08-04T16:41:27.131Z,65.62
2023-08-04T16:43:57.684Z,65.80
2023-08-04T16:46:35.384Z,66.01
2023-08-04T16:49:02.444Z,66.21
2023-08-04T16:51:28.937Z,66.34
2023-08-04T16:53:56.586Z,66.55
2023-08-04T16:56:23.119Z,66.63
2023-08-04T16:58:50.361Z,66.75
2023-08-04T17:01:16.922Z,66.94
2023-08-04T17:03:43.686Z,67.17
2023-08-04T17:06:14.577Z,67.41
2023-08-04T17:08:41.372Z,67.55
2023-08-04T17:11:08.595Z,67.79
2023-08-04T17:13:35.414Z,67.83
2023-08-04T17:16:31.802Z,67.97
2023-08-04T17:18:58.253Z,68.07
2023-08-04T17:21:24.954Z,68.08
2023-08-04T17:23:51.976Z,68.31
2023-08-04T17:26:18.506Z,68.45
2023-08-04T17:28:45.072Z,68.67
2023-08-04T17:31:11.641Z,68.82
2023-08-04T17:33:38.304Z,68.93
2023-08-04T17:36:06.016Z,68.95
2023-08-04T17:38:32.783Z,69.11
2023-08-04T17:41:03.999Z,69.17
2023-08-04T17:43:33.499Z,69.16
2023-08-04T17:46:00.134Z,69.33
2023-08-04T17:48:26.954Z,69.26
2023-08-04T17:50:55.934Z,69.39
2023-08-04T17:53:23.200Z,69.43
2023-08-04T17:55:50.747Z,69.61
2023-08-04T17:58:18.574Z,69.69
2023-08-04T18:00:46.190Z,69.71
2023-08-04T18:03:16.016Z,69.61
2023-08-04T18:05:43.364Z,69.72
2023-08-04T18:08:11.886Z,69.71
2023-08-04T18:10:43.157Z,69.97
2023-08-04T18:13:11.069Z,70.09
2023-08-04T18:15:40.462Z,70.13
2023-08-04T18:18:07.127Z,70.22
2023-08-04T18:20:34.688Z,70.29
2023-08-04T18:23:01.339Z,70.42
2023-08-04T18:25:32.368Z,70.55
2023-08-04T18:27:59.225Z,70.68
2023-08-04T18:30:25.866Z,70.47
2023-08-04T18:32:52.896Z,70.52
2023-08-04T18:35:19.963Z,70.53
2023-08-04T18:37:46.941Z,70.73
2023-08-04T18:40:13.729Z,70.91
2023-08-04T18:42:40.845Z,70.90
2023-08-04T18:45:14.417Z,71.00
2023-08-04T18:47:42.937Z,71.11
2023-08-04T18:50:09.885Z,71.01
2023-08-04T18:52:37.514Z,71.21
2023-08-04T18:55:05.143Z,71.09
2023-08-04T18:57:31.657Z,71.08
2023-08-04T18:59:58.212Z,71.24
2023-08-04T19:02:25.836Z,71.28
2023-08-04T19:04:52.415Z,71.33
2023-08-04T19:07:18.906Z,71.42
2023-08-04T19:09:45.508Z,71.43
2023-08-04T19:12:13.076Z,71.64
2023-08-04T19:14:39.733Z,71.73
2023-08-04T19:17:07.106Z,71.68
2023-08-04T19:19:34.240Z,71.68
2023-08-04T19:22:01.810Z,71.68
2023-08-04T19:24:28.834Z,71.73
2023-08-04T19:26:55.851Z,71.74
2023-08-04T19:29:44.682Z,71.63
2023-08-04T19:32:11.787Z,71.49
2023-08-04T19:34:38.553Z,71.35
2023-08-04T19:37:05.524Z,71.45
2023-08-04T19:39:32.329Z,71.40
2023-08-04T19:42:01.118Z,71.40
2023-08-04T19:44:27.915Z,71.41
2023-08-04T19:46:54.816Z,71.46
2023-08-04T19:49:21.381Z,71.75
2023-08-04T19:51:48.119Z,72.02
2023-08-04T19:54:14.611Z,72.19
2023-08-04T19:56:41.270Z,72.43
2023-08-04T19:59:08.965Z,72.34
2023-08-04T20:01:35.578Z,72.40
2023-08-04T20:04:02.215Z,72.51
2023-08-04T20:06:29.108Z,72.40
2023-08-04T20:08:55.599Z,72.49
2023-08-04T20:11:22.225Z,72.57
2023-08-04T20:13:50.104Z,72.58
2023-08-04T20:16:22.005Z,72.57
2023-08-04T20:18:49.622Z,72.58
2023-08-04T20:21:18.214Z,72.67
2023-08-04T20:23:44.802Z,72.69
2023-08-04T20:26:13.074Z,72.67
2023-08-04T20:28:42.657Z,72.70
2023-08-04T20:31:11.166Z,72.59
2023-08-04T20:33:41.306Z,72.98
2023-08-04T20:36:10.111Z,73.03
2023-08-04T20:38:37.294Z,72.91
2023-08-04T20:41:08.640Z,73.01
2023-08-04T20:43:38.942Z,73.09
2023-08-04T20:46:05.893Z,73.01
2023-08-04T20:48:32.669Z,73.00
2023-08-04T20:50:59.453Z,73.11
2023-08-04T20:53:27.293Z,73.07
2023-08-04T20:55:55.611Z,73.19
2023-08-04T20:58:28.302Z,73.25
2023-08-04T21:00:54.944Z,73.29
2023-08-04T21:03:21.504Z,73.32
2023-08-04T21:05:48.086Z,73.38
2023-08-04T21:08:14.414Z,73.44
2023-08-04T21:10:41.194Z,73.84
2023-08-04T21:13:08.242Z,73.90
2023-08-04T21:15:35.927Z,74.07
2023-08-04T21:18:03.071Z,74.11
2023-08-04T21:20:30.749Z,74.22
2023-08-04T21:22:57.248Z,74.30
2023-08-04T21:25:23.673Z,74.37
2023-08-04T21:27:50.405Z,74.35
2023-08-04T21:30:17.424Z,74.37
2023-08-04T21:32:43.930Z,74.35
2023-08-04T21:35:10.640Z,74.50
2023-08-04T21:37:37.759Z,74.56
2023-08-04T21:40:04.594Z,74.57
2023-08-04T21:42:31.036Z,74.52
2023-08-04T21:44:57.697Z,74.50
2023-08-04T21:47:24.348Z,74.59
2023-08-04T21:49:51.191Z,74.66
2023-08-04T21:52:17.561Z,74.67
2023-08-04T21:54:44.021Z,74.77
2023-08-04T21:57:11.133Z,74.76
2023-08-04T21:59:38.228Z,74.74
2023-08-04T22:02:05.804Z,74.68
2023-08-04T22:04:34.337Z,74.61
2023-08-04T22:07:03.120Z,74.83
2023-08-04T22:09:29.990Z,74.66
2023-08-04T22:11:56.765Z,74.64
2023-08-04T22:14:23.474Z,74.70
2023-08-04T22:16:50.433Z,74.80
2023-08-04T22:19:17.953Z,74.81
2023-08-04T22:21:44.152Z,74.71
2023-08-04T22:24:10.748Z,74.90
2023-08-04T22:26:37.615Z,74.81
2023-08-04T22:29:04.070Z,74.78
2023-08-04T22:31:30.526Z,74.79
2023-08-04T22:33:57.816Z,74.82
2023-08-04T22:36:25.252Z,74.80
2023-08-04T22:38:51.712Z,74.85
2023-08-04T22:41:18.421Z,75.04
2023-08-04T22:43:44.781Z,75.24
2023-08-04T22:46:11.305Z,75.16
2023-08-04T22:48:38.300Z,75.04
2023-08-04T22:51:33.568Z,74.98
2023-08-04T22:54:00.308Z,75.06
2023-08-04T22:56:30.097Z,74.86
2023-08-04T22:58:57.697Z,74.98
2023-08-04T23:01:24.780Z,74.89
2023-08-04T23:03:51.318Z,75.02
2023-08-04T23:06:18.163Z,75.05
2023-08-04T23:08:45.316Z,75.05
2023-08-04T23:12:11.668Z,75.05
2023-08-04T23:15:18.956Z,75.17
2023-08-04T23:18:45.161Z,75.14
2023-08-04T23:22:11.536Z,75.28
2023-08-04T23:25:38.996Z,75.29
2023-08-04T23:29:15.826Z,75.25
2023-08-04T23:32:29.188Z,74.82
2023-08-04T23:35:55.737Z,74.67
2023-08-04T23:39:44.644Z,74.60
2023-08-04T23:47:22.942Z,74.60
2023-08-04T23:50:51.410Z,74.49
2023-08-04T23:54:17.861Z,74.34
2023-08-04T23:57:54.915Z,74.61
